createdAt,value
2022-10-26T00:01:18.085Z,11.85
2022-10-26T00:03:46.245Z,11.52
2022-10-26T00:06:16.244Z,10.75
2022-10-26T00:08:44.016Z,12.07
2022-10-26T00:11:11.950Z,10.20
2022-10-26T00:13:40.106Z,12.40
2022-10-26T00:16:09.325Z,11.85
2022-10-26T00:18:36.886Z,10.52
2022-10-26T00:21:04.948Z,15.13
2022-10-26T00:23:33.904Z,11.43
2022-10-26T00:26:01.432Z,11.93
2022-10-26T00:28:28.982Z,12.80
2022-10-26T00:30:58.748Z,16.67
2022-10-26T00:33:26.275Z,14.95
2022-10-26T00:35:54.578Z,21.13
2022-10-26T00:38:22.167Z,15.35
2022-10-26T00:40:51.073Z,17.27
2022-10-26T00:43:33.471Z,20.85
2022-10-26T00:46:02.986Z,19.33
2022-10-26T00:48:31.423Z,18.88
2022-10-26T00:51:00.053Z,20.55
2022-10-26T00:53:27.709Z,16.92
2022-10-26T00:55:57.155Z,17.77
2022-10-26T00:58:26.084Z,23.08
2022-10-26T01:00:53.599Z,23.05
2022-10-26T01:03:21.637Z,18.52
2022-10-26T01:05:50.477Z,19.38
2022-10-26T01:08:18.224Z,20.08
2022-10-26T01:10:46.319Z,16.35
2022-10-26T01:13:17.039Z,18.35
2022-10-26T01:15:47.674Z,15.85
2022-10-26T01:18:18.882Z,15.85
2022-10-26T01:20:56.182Z,17.50
2022-10-26T01:23:27.711Z,18.83
2022-10-26T01:26:09.493Z,14.05
2022-10-26T01:28:50.922Z,15.82
2022-10-26T01:31:22.502Z,19.70
2022-10-26T01:33:51.196Z,18.30
2022-10-26T01:36:21.240Z,16.40
2022-10-26T01:38:54.520Z,17.35
2022-10-26T01:41:24.983Z,15.27
2022-10-26T01:43:55.071Z,15.82
2022-10-26T01:46:27.483Z,19.02
2022-10-26T01:48:57.118Z,13.98
2022-10-26T01:51:24.666Z,15.63
2022-10-26T01:53:52.111Z,16.27
2022-10-26T01:56:21.844Z,15.00
2022-10-26T01:59:08.963Z,13.38
2022-10-26T02:01:55.844Z,17.13
2022-10-26T02:04:29.483Z,14.40
2022-10-26T02:07:02.267Z,16.35
2022-10-26T02:09:33.971Z,19.33
2022-10-26T02:12:03.987Z,12.82
2022-10-26T02:14:34.574Z,13.35
2022-10-26T02:17:07.022Z,14.38
2022-10-26T02:19:37.399Z,13.60
2022-10-26T02:22:07.570Z,15.77
2022-10-26T02:24:36.882Z,12.45
2022-10-26T02:27:05.651Z,16.92
2022-10-26T02:29:34.272Z,18.55
2022-10-26T02:32:02.504Z,14.77
2022-10-26T02:34:31.571Z,17.80
2022-10-26T02:37:01.455Z,13.93
2022-10-26T02:39:32.510Z,15.00
2022-10-26T02:42:02.008Z,14.02
2022-10-26T02:44:31.538Z,13.30
2022-10-26T02:46:59.403Z,15.00
2022-10-26T02:49:27.079Z,23.92
2022-10-26T02:52:00.945Z,14.00
2022-10-26T02:54:31.684Z,13.15
2022-10-26T02:57:01.021Z,14.82
2022-10-26T02:59:29.951Z,16.08
2022-10-26T03:01:57.907Z,21.48
2022-10-26T03:04:29.397Z,16.10
2022-10-26T03:06:58.472Z,31.58
2022-10-26T03:09:26.158Z,16.63
2022-10-26T03:11:53.675Z,18.02
2022-10-26T03:14:21.491Z,17.55
2022-10-26T03:16:49.019Z,16.67
2022-10-26T03:19:16.553Z,18.15
2022-10-26T03:21:44.124Z,17.15
2022-10-26T03:24:12.987Z,20.35
2022-10-26T03:26:40.478Z,15.20
2022-10-26T03:29:08.994Z,18.42
2022-10-26T03:31:36.532Z,16.90
2022-10-26T03:34:04.062Z,18.88
2022-10-26T03:36:31.593Z,20.65
2022-10-26T03:38:59.088Z,17.83
2022-10-26T03:41:27.969Z,18.05
2022-10-26T03:43:55.549Z,15.27
2022-10-26T03:46:23.036Z,16.23
2022-10-26T03:48:50.559Z,20.98
2022-10-26T03:51:18.040Z,16.00
2022-10-26T03:53:45.564Z,20.35
2022-10-26T03:56:13.091Z,15.75
2022-10-26T03:58:41.956Z,22.60
2022-10-26T04:01:09.501Z,17.00
2022-10-26T04:03:37.087Z,13.63
2022-10-26T04:06:04.966Z,17.27
2022-10-26T04:08:32.460Z,13.65
2022-10-26T04:11:02.429Z,17.05
2022-10-26T04:13:32.057Z,16.38
2022-10-26T04:16:00.972Z,16.15
2022-10-26T04:18:28.467Z,17.45
2022-10-26T04:20:55.944Z,17.50
2022-10-26T04:25:55.880Z,15.73
2022-10-26T04:28:23.370Z,16.15
2022-10-26T04:30:50.841Z,15.60
2022-10-26T04:33:19.648Z,19.58
2022-10-26T04:35:48.208Z,16.23
2022-10-26T04:38:15.701Z,16.23
2022-10-26T04:40:43.213Z,14.85
2022-10-26T04:43:10.700Z,17.33
2022-10-26T04:45:38.208Z,17.45
2022-10-26T04:48:06.624Z,16.20
2022-10-26T04:50:35.897Z,13.23
2022-10-26T04:53:03.414Z,16.65
2022-10-26T04:55:30.960Z,19.58
2022-10-26T04:58:01.109Z,16.48
2022-10-26T05:00:30.188Z,14.25
2022-10-26T05:03:00.216Z,14.82
2022-10-26T05:05:27.889Z,15.48
2022-10-26T05:07:56.888Z,14.63
2022-10-26T05:10:24.677Z,16.17
2022-10-26T05:12:54.845Z,11.65
2022-10-26T05:15:22.561Z,11.15
2022-10-26T05:17:56.148Z,12.25
2022-10-26T05:20:29.263Z,10.25
2022-10-26T05:22:58.528Z,12.70
2022-10-26T05:25:26.457Z,11.13
2022-10-26T05:27:57.975Z,12.75
2022-10-26T05:30:26.286Z,12.32
2022-10-26T05:32:56.634Z,17.35
2022-10-26T05:35:24.253Z,11.93
2022-10-26T05:37:51.757Z,18.08
2022-10-26T05:40:20.719Z,12.52
2022-10-26T05:42:48.672Z,12.05
2022-10-26T05:45:18.090Z,17.30
2022-10-26T05:47:46.535Z,17.83
2022-10-26T05:50:14.940Z,13.52
2022-10-26T05:52:43.014Z,14.15
2022-10-26T05:55:12.400Z,13.82
2022-10-26T05:57:41.800Z,12.52
2022-10-26T06:00:10.486Z,11.18
2022-10-26T06:02:46.633Z,12.70
2022-10-26T06:05:19.467Z,10.30
2022-10-26T06:07:47.362Z,9.98
2022-10-26T06:10:15.556Z,11.00
2022-10-26T06:12:47.590Z,12.20
2022-10-26T06:15:21.081Z,10.93
2022-10-26T06:17:54.035Z,9.82
2022-10-26T06:20:27.473Z,8.48
2022-10-26T06:23:01.309Z,12.27
2022-10-26T06:25:33.848Z,13.27
2022-10-26T06:28:06.345Z,13.25
2022-10-26T06:30:34.031Z,12.27
2022-10-26T06:33:11.553Z,13.45
2022-10-26T06:35:50.647Z,11.70
2022-10-26T06:38:19.633Z,11.55
2022-10-26T06:40:51.401Z,9.10
2022-10-26T06:43:23.650Z,11.52
2022-10-26T06:45:56.561Z,9.15
2022-10-26T06:48:25.614Z,8.40
2022-10-26T06:50:54.062Z,10.15
2022-10-26T06:53:25.446Z,9.82
2022-10-26T06:55:53.542Z,9.27
2022-10-26T06:58:24.238Z,11.98
2022-10-26T07:00:53.004Z,9.55
2022-10-26T07:03:20.832Z,6.97
2022-10-26T07:05:48.475Z,7.15
2022-10-26T07:08:16.025Z,5.07
2022-10-26T07:10:43.974Z,8.57
2022-10-26T07:13:14.574Z,6.47
2022-10-26T07:15:43.562Z,6.00
2022-10-26T07:18:11.161Z,7.07
2022-10-26T07:20:39.539Z,8.43
2022-10-26T07:23:07.970Z,6.80
2022-10-26T07:25:39.457Z,12.77
2022-10-26T07:28:07.617Z,6.40
2022-10-26T07:30:35.076Z,6.80
2022-10-26T07:33:05.461Z,8.00
2022-10-26T07:35:33.733Z,8.27
2022-10-26T07:38:01.292Z,10.18
2022-10-26T07:40:29.326Z,6.55
2022-10-26T07:42:57.766Z,8.63
2022-10-26T07:45:25.282Z,9.55
2022-10-26T07:47:53.023Z,8.60
2022-10-26T07:50:21.952Z,13.82
2022-10-26T07:52:49.644Z,6.82
2022-10-26T07:55:17.321Z,7.07
2022-10-26T07:57:50.968Z,7.40
2022-10-26T08:00:21.481Z,9.80
2022-10-26T08:02:49.304Z,10.98
2022-10-26T08:05:25.519Z,10.25
2022-10-26T08:07:54.420Z,9.63
2022-10-26T08:10:22.528Z,7.88
2022-10-26T08:12:55.221Z,11.93
2022-10-26T08:15:22.794Z,8.60
2022-10-26T08:17:51.984Z,5.95
2022-10-26T08:20:21.107Z,7.45
2022-10-26T08:22:49.037Z,5.63
2022-10-26T08:25:21.261Z,5.63
2022-10-26T08:27:51.377Z,6.43
2022-10-26T08:30:19.005Z,8.50
2022-10-26T08:32:46.588Z,8.13
2022-10-26T08:35:14.184Z,6.03
2022-10-26T08:37:41.655Z,8.30
2022-10-26T08:40:12.107Z,5.22
2022-10-26T08:42:43.992Z,4.53
2022-10-26T08:45:13.985Z,5.57
2022-10-26T08:47:44.939Z,5.45
2022-10-26T08:50:14.778Z,8.57
2022-10-26T08:52:47.853Z,5.45
2022-10-26T08:55:16.845Z,7.80
2022-10-26T08:57:48.133Z,5.45
2022-10-26T09:00:18.450Z,4.18
2022-10-26T09:02:46.078Z,6.43
2022-10-26T09:05:16.231Z,5.03
2022-10-26T09:07:48.614Z,5.47
2022-10-26T09:10:31.283Z,4.13
2022-10-26T09:13:04.056Z,5.07
2022-10-26T09:15:38.599Z,4.75
2022-10-26T09:18:13.139Z,5.75
2022-10-26T09:20:50.545Z,4.82
2022-10-26T09:23:24.638Z,4.75
2022-10-26T09:25:55.853Z,8.52
2022-10-26T09:28:24.894Z,3.85
2022-10-26T09:30:52.525Z,6.80
2022-10-26T09:33:21.021Z,5.05
2022-10-26T09:35:51.664Z,5.45
2022-10-26T09:38:21.681Z,5.95
2022-10-26T09:40:53.598Z,4.80
2022-10-26T09:43:26.259Z,4.18
2022-10-26T09:45:55.283Z,5.57
2022-10-26T09:48:26.641Z,4.55
2022-10-26T09:50:54.205Z,4.50
2022-10-26T09:53:21.743Z,5.65
2022-10-26T09:55:50.521Z,5.40
2022-10-26T09:58:21.441Z,7.43
2022-10-26T10:00:52.705Z,8.55
2022-10-26T10:03:24.503Z,5.05
2022-10-26T10:05:52.899Z,5.32
2022-10-26T10:08:22.276Z,5.85
2022-10-26T10:11:03.970Z,5.90
2022-10-26T10:13:32.967Z,10.68
2022-10-26T10:16:08.093Z,6.68
2022-10-26T10:18:38.457Z,12.02
2022-10-26T10:21:06.741Z,5.57
2022-10-26T10:23:35.302Z,6.47
2022-10-26T10:26:04.108Z,6.95
2022-10-26T10:28:31.811Z,5.15
2022-10-26T10:31:00.509Z,4.90
2022-10-26T10:36:20.006Z,5.65
2022-10-26T10:38:48.662Z,8.02
2022-10-26T10:41:17.730Z,6.47
2022-10-26T10:44:04.273Z,7.10
2022-10-26T10:46:32.001Z,4.03
2022-10-26T10:49:04.666Z,7.22
2022-10-26T10:51:39.708Z,5.38
2022-10-26T10:54:12.536Z,6.47
2022-10-26T10:56:42.428Z,7.57
2022-10-26T10:59:17.306Z,9.65
2022-10-26T11:01:47.945Z,7.40
2022-10-26T11:04:31.227Z,6.82
2022-10-26T11:07:00.749Z,10.50
2022-10-26T11:09:30.518Z,5.05
2022-10-26T11:11:59.309Z,7.95
2022-10-26T11:14:29.529Z,6.65
2022-10-26T11:17:22.279Z,5.28
2022-10-26T11:19:59.307Z,4.60
2022-10-26T11:22:32.854Z,5.50
2022-10-26T11:25:04.428Z,4.18
2022-10-26T11:27:35.496Z,8.90
2022-10-26T11:30:07.153Z,5.85
2022-10-26T11:32:44.215Z,4.55
2022-10-26T11:35:15.179Z,5.75
2022-10-26T11:37:46.985Z,3.88
2022-10-26T11:40:22.931Z,7.47
2022-10-26T11:42:53.266Z,7.05
2022-10-26T11:45:24.278Z,5.22
2022-10-26T11:47:53.466Z,8.77
2022-10-26T11:50:23.208Z,7.45
2022-10-26T11:52:59.274Z,7.00
2022-10-26T11:55:29.045Z,6.25
2022-10-26T11:57:56.868Z,6.80
2022-10-26T12:00:27.072Z,4.72
2022-10-26T12:02:58.328Z,7.65
2022-10-26T12:05:30.381Z,9.75
2022-10-26T12:08:20.376Z,4.57
2022-10-26T12:10:52.109Z,4.95
2022-10-26T12:13:25.871Z,3.83
2022-10-26T12:16:03.461Z,5.78
2022-10-26T12:18:54.619Z,6.78
2022-10-26T12:21:24.073Z,8.75
2022-10-26T12:23:55.887Z,7.80
2022-10-26T12:26:41.753Z,8.02
2022-10-26T12:29:42.581Z,6.80
2022-10-26T12:32:28.740Z,8.63
2022-10-26T12:35:05.328Z,6.55
2022-10-26T12:37:36.710Z,7.57
2022-10-26T12:40:24.534Z,9.10
2022-10-26T12:42:53.352Z,7.63
2022-10-26T12:45:21.451Z,7.10
2022-10-26T12:48:39.014Z,8.75
2022-10-26T12:51:21.552Z,12.93
2022-10-26T12:53:51.294Z,7.32
2022-10-26T12:56:21.327Z,5.80
2022-10-26T12:59:04.542Z,10.88
2022-10-26T13:01:37.956Z,9.63
2022-10-26T13:04:14.277Z,7.63
2022-10-26T13:06:47.094Z,8.90
2022-10-26T13:09:19.942Z,10.35
2022-10-26T13:11:49.687Z,10.65
2022-10-26T13:14:21.651Z,6.97
2022-10-26T13:16:49.607Z,8.65
2022-10-26T13:19:41.502Z,12.65
2022-10-26T13:25:19.822Z,9.68
2022-10-26T13:27:58.015Z,6.45
2022-10-26T13:30:52.317Z,7.45
2022-10-26T13:33:25.720Z,9.05
2022-10-26T13:35:55.547Z,5.87
2022-10-26T13:38:25.297Z,9.63
2022-10-26T13:40:54.166Z,8.13
2022-10-26T13:43:24.442Z,9.23
2022-10-26T13:45:55.069Z,11.60
2022-10-26T13:48:31.857Z,7.50
2022-10-26T13:51:03.128Z,9.98
2022-10-26T13:53:37.645Z,9.65
2022-10-26T13:56:15.597Z,7.60
2022-10-26T13:58:51.184Z,9.68
2022-10-26T14:02:21.858Z,8.05
2022-10-26T14:04:53.119Z,8.40
2022-10-26T14:07:46.608Z,8.70
2022-10-26T14:11:04.881Z,10.48
2022-10-26T14:16:27.229Z,6.32
2022-10-26T14:19:08.057Z,6.07
2022-10-26T14:21:46.371Z,9.05
2022-10-26T14:24:27.476Z,5.47
2022-10-26T14:27:07.394Z,4.88
2022-10-26T14:29:38.898Z,8.73
2022-10-26T14:32:20.912Z,5.25
2022-10-26T14:34:48.468Z,5.53
2022-10-26T14:37:21.434Z,6.18
2022-10-26T14:39:49.067Z,7.15
2022-10-26T14:42:19.097Z,9.43
2022-10-26T14:44:46.627Z,7.88
2022-10-26T14:47:15.154Z,7.00
2022-10-26T14:50:08.516Z,7.60
2022-10-26T14:52:37.796Z,8.57
2022-10-26T14:55:11.720Z,9.18
2022-10-26T14:57:40.522Z,5.82
2022-10-26T15:00:15.513Z,5.90
2022-10-26T15:02:43.845Z,6.35
2022-10-26T15:05:22.128Z,8.38
2022-10-26T15:07:51.906Z,12.80
2022-10-26T15:10:39.397Z,4.82
2022-10-26T15:13:10.194Z,10.82
2022-10-26T15:15:39.708Z,4.30
2022-10-26T15:18:19.453Z,5.57
2022-10-26T15:20:48.193Z,4.68
2022-10-26T15:23:20.405Z,5.50
2022-10-26T15:25:52.188Z,6.72
2022-10-26T15:31:45.267Z,3.97
2022-10-26T15:34:16.207Z,7.10
2022-10-26T15:36:44.430Z,4.55
2022-10-26T15:39:13.361Z,7.45
2022-10-26T15:41:46.798Z,4.20
2022-10-26T15:44:16.177Z,4.27
2022-10-26T15:46:46.991Z,4.93
2022-10-26T15:49:18.769Z,7.95
2022-10-26T15:51:46.932Z,4.18
2022-10-26T15:54:15.954Z,8.60
2022-10-26T15:56:50.474Z,5.35
2022-10-26T15:59:18.969Z,7.90
2022-10-26T16:01:53.147Z,8.30
2022-10-26T16:06:48.255Z,5.32
2022-10-26T16:09:26.259Z,4.93
2022-10-26T16:11:53.714Z,6.80
2022-10-26T16:14:21.515Z,8.18
2022-10-26T16:16:51.496Z,11.82
2022-10-26T16:19:30.229Z,5.82
2022-10-26T16:21:59.351Z,9.82
2022-10-26T16:24:44.903Z,9.88
2022-10-26T16:27:13.787Z,5.60
2022-10-26T16:29:46.488Z,6.05
2022-10-26T16:32:14.013Z,3.40
2022-10-26T16:34:41.658Z,3.97
2022-10-26T16:37:09.327Z,5.47
2022-10-26T16:39:36.855Z,5.68
2022-10-26T16:42:04.458Z,4.53
2022-10-26T16:44:33.425Z,5.60
2022-10-26T16:47:01.028Z,8.13
2022-10-26T16:49:29.077Z,5.40
2022-10-26T16:51:58.404Z,7.20
2022-10-26T16:54:26.370Z,6.60
2022-10-26T16:56:56.063Z,6.47
2022-10-26T16:59:23.625Z,7.60
2022-10-26T17:02:00.386Z,7.30
2022-10-26T17:04:28.034Z,9.15
2022-10-26T17:06:57.751Z,6.43
2022-10-26T17:09:25.619Z,6.82
2022-10-26T17:11:54.234Z,5.72
2022-10-26T17:14:23.924Z,12.13
2022-10-26T17:16:52.785Z,9.10
2022-10-26T17:19:20.411Z,8.25
2022-10-26T17:21:48.026Z,5.70
2022-10-26T17:24:16.441Z,5.95
2022-10-26T17:26:44.156Z,8.27
2022-10-26T17:29:14.852Z,4.90
2022-10-26T17:31:42.504Z,6.43
2022-10-26T17:34:11.553Z,6.53
2022-10-26T17:36:39.098Z,6.32
2022-10-26T17:39:06.834Z,6.05
2022-10-26T17:41:34.355Z,7.50
2022-10-26T17:44:01.882Z,8.80
2022-10-26T17:46:29.666Z,8.52
2022-10-26T17:49:23.490Z,11.77
2022-10-26T17:55:21.652Z,3.53
2022-10-26T17:57:49.605Z,10.77
2022-10-26T18:00:18.333Z,9.38
2022-10-26T18:02:50.141Z,5.55
2022-10-26T18:05:29.802Z,8.57
2022-10-26T18:07:57.373Z,8.40
2022-10-26T18:10:37.650Z,6.32
2022-10-26T18:13:06.139Z,7.72
2022-10-26T18:15:55.794Z,6.88
2022-10-26T18:18:23.379Z,5.28
2022-10-26T18:20:50.935Z,6.65
2022-10-26T18:23:18.392Z,7.45
2022-10-26T18:25:50.522Z,5.25
2022-10-26T18:28:34.917Z,6.40
2022-10-26T18:31:03.523Z,4.57
2022-10-26T18:33:33.979Z,6.65
2022-10-26T18:36:05.192Z,5.50
2022-10-26T18:38:33.484Z,6.82
2022-10-26T18:41:02.370Z,6.60
2022-10-26T18:43:30.310Z,6.28
2022-10-26T18:46:03.421Z,6.63
2022-10-26T18:48:31.098Z,8.52
2022-10-26T18:51:02.482Z,7.10
2022-10-26T18:53:30.062Z,8.80
2022-10-26T18:56:00.682Z,7.60
2022-10-26T18:58:33.078Z,7.30
2022-10-26T19:01:07.513Z,7.82
2022-10-26T19:03:35.310Z,8.43
2022-10-26T19:06:09.516Z,8.05
2022-10-26T19:08:37.096Z,6.05
2022-10-26T19:11:05.360Z,5.15
2022-10-26T19:13:34.236Z,7.60
2022-10-26T19:16:02.647Z,7.07
2022-10-26T19:18:30.385Z,8.40
2022-10-26T19:21:01.323Z,9.07
2022-10-26T19:23:32.967Z,7.68
2022-10-26T19:26:10.682Z,9.85
2022-10-26T19:28:41.884Z,9.50
2022-10-26T19:31:10.183Z,5.95
2022-10-26T19:33:37.830Z,10.50
2022-10-26T19:36:06.585Z,7.88
2022-10-26T19:38:34.466Z,5.22
2022-10-26T19:41:07.979Z,9.70
2022-10-26T19:43:36.652Z,13.00
2022-10-26T19:46:09.584Z,12.65
2022-10-26T19:48:37.440Z,6.43
2022-10-26T19:51:09.727Z,7.75
2022-10-26T19:53:37.316Z,5.00
2022-10-26T19:56:10.427Z,5.72
2022-10-26T19:58:38.583Z,8.40
2022-10-26T20:01:06.326Z,6.03
2022-10-26T20:03:35.595Z,6.68
2022-10-26T20:06:08.013Z,6.70
2022-10-26T20:08:36.356Z,8.23
2022-10-26T20:11:08.972Z,6.82
2022-10-26T20:13:39.271Z,5.70
2022-10-26T20:16:07.660Z,6.10
2022-10-26T20:18:36.761Z,10.02
2022-10-26T20:21:07.665Z,12.60
2022-10-26T20:23:35.190Z,6.82
2022-10-26T20:28:34.647Z,13.20
2022-10-26T20:31:02.243Z,6.03
2022-10-26T20:33:30.650Z,5.63
2022-10-26T20:36:00.668Z,16.20
2022-10-26T20:38:28.590Z,5.53
2022-10-26T20:40:57.109Z,4.63
2022-10-26T20:43:25.357Z,6.90
2022-10-26T20:45:53.283Z,7.07
2022-10-26T20:48:21.226Z,7.28
2022-10-26T20:50:50.871Z,10.75
2022-10-26T20:53:24.446Z,8.82
2022-10-26T20:55:57.253Z,9.80
2022-10-26T20:58:33.710Z,10.07
2022-10-26T21:01:02.466Z,8.35
2022-10-26T21:03:30.102Z,8.40
2022-10-26T21:05:57.889Z,6.70
2022-10-26T21:08:26.853Z,8.45
2022-10-26T21:10:55.101Z,10.23
2022-10-26T21:13:22.638Z,6.88
2022-10-26T21:15:50.120Z,8.70
2022-10-26T21:18:17.760Z,10.02
2022-10-26T21:20:45.302Z,13.15
2022-10-26T21:23:16.008Z,14.13
2022-10-26T21:25:45.945Z,12.50
2022-10-26T21:28:22.902Z,9.80
2022-10-26T21:30:50.545Z,14.98
2022-10-26T21:33:20.038Z,8.80
2022-10-26T21:35:53.571Z,11.30
2022-10-26T21:38:21.110Z,11.63
2022-10-26T21:40:49.971Z,14.77
2022-10-26T21:43:18.936Z,9.75
2022-10-26T21:45:46.556Z,11.43
2022-10-26T21:48:14.169Z,7.28
2022-10-26T21:50:42.170Z,17.20
2022-10-26T21:53:09.738Z,8.52
2022-10-26T21:55:37.229Z,15.82
2022-10-26T21:58:06.347Z,8.68
2022-10-26T22:00:33.849Z,12.65
2022-10-26T22:03:01.323Z,11.75
2022-10-26T22:05:29.602Z,10.98
2022-10-26T22:08:02.177Z,9.00
2022-10-26T22:10:29.731Z,13.30
2022-10-26T22:13:00.874Z,11.75
2022-10-26T22:15:29.786Z,13.05
2022-10-26T22:17:57.299Z,14.80
2022-10-26T22:20:27.627Z,12.73
2022-10-26T22:22:55.254Z,11.52
2022-10-26T22:25:22.778Z,17.00
2022-10-26T22:27:50.643Z,11.93
2022-10-26T22:30:18.285Z,17.45
2022-10-26T22:32:48.651Z,16.15
2022-10-26T22:35:34.804Z,11.38
2022-10-26T22:38:02.488Z,16.08
2022-10-26T22:40:29.958Z,14.73
2022-10-26T22:42:57.465Z,12.32
2022-10-26T22:45:25.107Z,12.05
2022-10-26T22:47:57.773Z,15.93
2022-10-26T22:50:27.901Z,10.75
2022-10-26T22:52:55.386Z,10.25
2022-10-26T22:55:23.142Z,14.68
2022-10-26T22:57:50.790Z,13.13
2022-10-26T23:00:19.140Z,17.52
2022-10-26T23:02:46.769Z,11.43
2022-10-26T23:05:15.767Z,15.13
2022-10-26T23:07:43.232Z,12.82
2022-10-26T23:10:11.290Z,18.27
2022-10-26T23:12:38.932Z,12.73
2022-10-26T23:15:08.457Z,16.75
2022-10-26T23:17:36.180Z,17.02
2022-10-26T23:20:03.756Z,15.30
2022-10-26T23:22:32.657Z,15.23
2022-10-26T23:25:01.473Z,16.63
2022-10-26T23:27:30.755Z,19.55
2022-10-26T23:29:58.333Z,14.13
2022-10-26T23:32:25.819Z,13.15
2022-10-26T23:34:53.329Z,18.55
2022-10-26T23:37:20.808Z,15.68
2022-10-26T23:39:50.732Z,14.32
2022-10-26T23:42:18.239Z,20.30
2022-10-26T23:44:47.666Z,15.75
2022-10-26T23:47:15.156Z,19.35
2022-10-26T23:49:42.875Z,18.67
2022-10-26T23:52:10.342Z,14.50
2022-10-26T23:54:37.847Z,14.13
2022-10-26T23:57:06.772Z,17.42
2022-10-26T23:59:34.263Z,16.25
